Aigle Des Mers — FO4883 — position and weather

sailwx.info

Track history (hours):
 
Tides and Currents Weather Stations Pressure Air Temp Water Temp Dewpoint Dewpoint Depression Visibility Wind Speed Wind Dir Waves Ship Positions

Aigle Des Mers

Last reported at 2014-Oct-20 20:14 UTC. Time now 2014-Oct-21 15:24 UTC.
Position N 48°06' W 004°19'.

Type: Fishing. MMSI: 227318010.

Date/timePositionNaut miles runAvg speedWind from/ knotsBaromVisibWave heightAir tempDewpointWater temp
2014-Oct-20 20:14N 48°06' W 004°19'4 5.6
2014-Oct-20 19:33N 48°07' W 004°25'9 8.8
2014-Oct-20 18:33N 48°05' W 004°38'3 2.8
2014-Oct-20 17:33N 48°08' W 004°36'12 8.2
2014-Oct-20 16:09N 48°06' W 004°19'0 0.2
2014-Oct-20 15:33N 48°06' W 004°19'0 0.0
2014-Oct-20 14:33N 48°06' W 004°19'0 0.0
2014-Oct-20 13:33N 48°06' W 004°19'0 0.0
2014-Oct-20 12:33N 48°06' W 004°19'0 0.0
2014-Oct-20 11:33N 48°06' W 004°19'0 0.0
2014-Oct-20 10:33N 48°06' W 004°19'0 0.0
2014-Oct-20 09:33N 48°06' W 004°19'0 0.0
2014-Oct-20 08:33N 48°06' W 004°19'0 0.0
2014-Oct-20 07:33N 48°06' W 004°19'0 0.0
2014-Oct-20 06:33N 48°06' W 004°19'0 0.0
2014-Oct-20 05:33N 48°06' W 004°19'0 0.0
2014-Oct-20 04:33N 48°06' W 004°19'0 0.0
2014-Oct-20 03:34N 48°06' W 004°19'0 0.0
2014-Oct-20 02:34N 48°06' W 004°19'1 1.4
2014-Oct-20 01:33N 48°07' W 004°19'5 5.1
2014-Oct-20 00:33N 48°11' W 004°24'7 6.9
2014-Oct-19 23:33N 48°08' W 004°33'3 3.4
2014-Oct-19 22:34N 48°08' W 004°38'7 7.1
2014-Oct-19 21:33N 48°10' W 004°48'6 6.1
2014-Oct-19 20:34N 48°15' W 004°54'7 7.4
2014-Oct-19 19:33N 48°17' W 005°05'8 7.7
2014-Oct-19 18:33N 48°13' W 004°55'9 8.9
2014-Oct-19 17:33N 48°10' W 004°42'9 8.6
2014-Oct-19 16:32N 48°09' W 004°29'7 7.5
2014-Oct-19 15:33N 48°06' W 004°19'  
2014-Oct-15 22:33N 48°06' W 004°19'5 5.0
2014-Oct-15 21:33N 48°07' W 004°27'9 8.5
2014-Oct-15 20:33N 48°09' W 004°39'9 8.8
2014-Oct-15 19:33N 48°14' W 004°50'2 1.5
2014-Oct-15 18:33N 48°13' W 004°49'9 9.1
2014-Oct-15 17:33N 48°10' W 004°36'12 8.4
2014-Oct-15 16:10N 48°06' W 004°19'0 0.3
2014-Oct-15 15:34N 48°06' W 004°19'0 0.0
2014-Oct-15 08:14N 48°06' W 004°19'0 0.2
2014-Oct-15 07:33N 48°06' W 004°20'0 0.0
2014-Oct-15 06:33N 48°06' W 004°20'0 0.0
2014-Oct-15 05:32N 48°06' W 004°20'0 0.0
2014-Oct-15 04:33N 48°06' W 004°20'0 0.0
2014-Oct-15 03:32N 48°06' W 004°20'0 0.0
2014-Oct-15 02:32N 48°06' W 004°20'0 0.0
2014-Oct-15 01:33N 48°06' W 004°20'8 8.2
2014-Oct-15 00:34N 48°09' W 004°31'9 8.7
2014-Oct-14 23:33N 48°11' W 004°44'9 9.0
2014-Oct-14 22:33N 48°15' W 004°56'7 6.6
2014-Oct-14 21:34N 48°17' W 005°05'1 0.6
2014-Oct-14 20:33N 48°17' W 005°04'3 3.2
2014-Oct-14 19:33N 48°14' W 005°02'9 9.0
2014-Oct-14 18:34N 48°12' W 004°49'9 9.0
2014-Oct-14 17:33N 48°09' W 004°36'12 8.4
2014-Oct-14 16:11N 48°06' W 004°19'0 0.0
2014-Oct-14 05:19N 48°06' W 004°20'0 0.1
2014-Oct-14 04:33N 48°06' W 004°20'0 0.0
2014-Oct-14 03:33N 48°06' W 004°20'0 0.0
2014-Oct-14 02:33N 48°06' W 004°20'0 0.0
2014-Oct-14 01:33N 48°06' W 004°20'8 7.8
2014-Oct-14 00:33N 48°07' W 004°31'9 8.7
2014-Oct-13 23:33N 48°09' W 004°44'9 9.1
2014-Oct-13 22:33N 48°12' W 004°57'5 4.2
2014-Oct-13 21:23N 48°14' W 005°03'1 1.5
2014-Oct-13 20:34N 48°13' W 005°04'8 8.4
2014-Oct-13 19:33N 48°10' W 004°52'9 8.7
2014-Oct-13 18:33N 48°08' W 004°39'8 8.2
2014-Oct-13 17:33N 48°07' W 004°27'5 5.1
2014-Oct-13 16:33N 48°06' W 004°19'  
Track history (hours):
 
Tides and Currents Weather Stations Pressure Air Temp Water Temp Dewpoint Dewpoint Depression Visibility Wind Speed Wind Dir Waves Ship Positions

Aigle Des Mers

Last reported at 2014-Oct-20 20:14 UTC. Time now 2014-Oct-21 15:24 UTC.
Position N 48°06' W 004°19'.

Type: Fishing. MMSI: 227318010.

Date/timePositionNaut miles runAvg speedWind from/ knotsBaromVisibWave heightAir tempDewpointWater temp
2014-Oct-20 20:14N 48°06' W 004°19'4 5.6
2014-Oct-20 19:33N 48°07' W 004°25'9 8.8
2014-Oct-20 18:33N 48°05' W 004°38'3 2.8
2014-Oct-20 17:33N 48°08' W 004°36'12 8.2
2014-Oct-20 16:09N 48°06' W 004°19'0 0.2
2014-Oct-20 15:33N 48°06' W 004°19'0 0.0
2014-Oct-20 14:33N 48°06' W 004°19'0 0.0
2014-Oct-20 13:33N 48°06' W 004°19'0 0.0
2014-Oct-20 12:33N 48°06' W 004°19'0 0.0
2014-Oct-20 11:33N 48°06' W 004°19'0 0.0
2014-Oct-20 10:33N 48°06' W 004°19'0 0.0
2014-Oct-20 09:33N 48°06' W 004°19'0 0.0
2014-Oct-20 08:33N 48°06' W 004°19'0 0.0
2014-Oct-20 07:33N 48°06' W 004°19'0 0.0
2014-Oct-20 06:33N 48°06' W 004°19'0 0.0
2014-Oct-20 05:33N 48°06' W 004°19'0 0.0
2014-Oct-20 04:33N 48°06' W 004°19'0 0.0
2014-Oct-20 03:34N 48°06' W 004°19'0 0.0
2014-Oct-20 02:34N 48°06' W 004°19'1 1.4
2014-Oct-20 01:33N 48°07' W 004°19'5 5.1
2014-Oct-20 00:33N 48°11' W 004°24'7 6.9
2014-Oct-19 23:33N 48°08' W 004°33'3 3.4
2014-Oct-19 22:34N 48°08' W 004°38'7 7.1
2014-Oct-19 21:33N 48°10' W 004°48'6 6.1
2014-Oct-19 20:34N 48°15' W 004°54'7 7.4
2014-Oct-19 19:33N 48°17' W 005°05'8 7.7
2014-Oct-19 18:33N 48°13' W 004°55'9 8.9
2014-Oct-19 17:33N 48°10' W 004°42'9 8.6
2014-Oct-19 16:32N 48°09' W 004°29'7 7.5
2014-Oct-19 15:33N 48°06' W 004°19'  
2014-Oct-15 22:33N 48°06' W 004°19'5 5.0
2014-Oct-15 21:33N 48°07' W 004°27'9 8.5
2014-Oct-15 20:33N 48°09' W 004°39'9 8.8
2014-Oct-15 19:33N 48°14' W 004°50'2 1.5
2014-Oct-15 18:33N 48°13' W 004°49'9 9.1
2014-Oct-15 17:33N 48°10' W 004°36'12 8.4
2014-Oct-15 16:10N 48°06' W 004°19'0 0.3
2014-Oct-15 15:34N 48°06' W 004°19'0 0.0
2014-Oct-15 08:14N 48°06' W 004°19'0 0.2
2014-Oct-15 07:33N 48°06' W 004°20'0 0.0
2014-Oct-15 06:33N 48°06' W 004°20'0 0.0
2014-Oct-15 05:32N 48°06' W 004°20'0 0.0
2014-Oct-15 04:33N 48°06' W 004°20'0 0.0
2014-Oct-15 03:32N 48°06' W 004°20'0 0.0
2014-Oct-15 02:32N 48°06' W 004°20'0 0.0
2014-Oct-15 01:33N 48°06' W 004°20'8 8.2
2014-Oct-15 00:34N 48°09' W 004°31'9 8.7
2014-Oct-14 23:33N 48°11' W 004°44'9 9.0
2014-Oct-14 22:33N 48°15' W 004°56'7 6.6
2014-Oct-14 21:34N 48°17' W 005°05'1 0.6
2014-Oct-14 20:33N 48°17' W 005°04'3 3.2
2014-Oct-14 19:33N 48°14' W 005°02'9 9.0
2014-Oct-14 18:34N 48°12' W 004°49'9 9.0
2014-Oct-14 17:33N 48°09' W 004°36'12 8.4
2014-Oct-14 16:11N 48°06' W 004°19'0 0.0
2014-Oct-14 05:19N 48°06' W 004°20'0 0.1
2014-Oct-14 04:33N 48°06' W 004°20'0 0.0
2014-Oct-14 03:33N 48°06' W 004°20'0 0.0
2014-Oct-14 02:33N 48°06' W 004°20'0 0.0
2014-Oct-14 01:33N 48°06' W 004°20'8 7.8
2014-Oct-14 00:33N 48°07' W 004°31'9 8.7
2014-Oct-13 23:33N 48°09' W 004°44'9 9.1
2014-Oct-13 22:33N 48°12' W 004°57'5 4.2
2014-Oct-13 21:23N 48°14' W 005°03'1 1.5
2014-Oct-13 20:34N 48°13' W 005°04'8 8.4
2014-Oct-13 19:33N 48°10' W 004°52'9 8.7
2014-Oct-13 18:33N 48°08' W 004°39'8 8.2
2014-Oct-13 17:33N 48°07' W 004°27'5 5.1
2014-Oct-13 16:33N 48°06' W 004°19'  

Dump ship's entire track history